sensor_id;sensor_type;location;lat;lon;timestamp;P1;durP1;ratioP1;P2;durP2;ratioP2
59442;SDS011;45247;47.466;19.004;2023-05-14T00:02:18;6.38;;;4.05;;
59442;SDS011;45247;47.466;19.004;2023-05-14T00:04:46;7.50;;;4.22;;
59442;SDS011;45247;47.466;19.004;2023-05-14T00:07:15;4.22;;;3.63;;
59442;SDS011;45247;47.466;19.004;2023-05-14T00:09:43;5.85;;;4.30;;
59442;SDS011;45247;47.466;19.004;2023-05-14T00:12:11;5.03;;;3.97;;
59442;SDS011;45247;47.466;19.004;2023-05-14T00:14:39;7.68;;;4.10;;
59442;SDS011;45247;47.466;19.004;2023-05-14T00:17:09;5.72;;;3.67;;
59442;SDS011;45247;47.466;19.004;2023-05-14T00:19:37;5.50;;;4.05;;
59442;SDS011;45247;47.466;19.004;2023-05-14T00:22:07;4.72;;;3.88;;
59442;SDS011;45247;47.466;19.004;2023-05-14T00:24:35;5.75;;;3.60;;
59442;SDS011;45247;47.466;19.004;2023-05-14T00:27:04;6.43;;;4.32;;
59442;SDS011;45247;47.466;19.004;2023-05-14T00:29:33;4.75;;;3.75;;
59442;SDS011;45247;47.466;19.004;2023-05-14T00:32:01;4.47;;;3.60;;
59442;SDS011;45247;47.466;19.004;2023-05-14T00:34:31;5.63;;;3.90;;
59442;SDS011;45247;47.466;19.004;2023-05-14T00:36:59;5.47;;;3.70;;
59442;SDS011;45247;47.466;19.004;2023-05-14T00:39:27;6.85;;;4.53;;
59442;SDS011;45247;47.466;19.004;2023-05-14T00:41:55;4.80;;;3.80;;
59442;SDS011;45247;47.466;19.004;2023-05-14T00:44:23;5.60;;;3.83;;
59442;SDS011;45247;47.466;19.004;2023-05-14T00:46:52;7.00;;;4.38;;
59442;SDS011;45247;47.466;19.004;2023-05-14T00:49:20;5.07;;;4.10;;
59442;SDS011;45247;47.466;19.004;2023-05-14T00:51:51;6.00;;;3.95;;
59442;SDS011;45247;47.466;19.004;2023-05-14T00:54:19;5.03;;;4.05;;
59442;SDS011;45247;47.466;19.004;2023-05-14T00:56:48;7.25;;;4.07;;
59442;SDS011;45247;47.466;19.004;2023-05-14T00:59:17;6.10;;;3.88;;
59442;SDS011;45247;47.466;19.004;2023-05-14T01:01:45;4.70;;;3.88;;
59442;SDS011;45247;47.466;19.004;2023-05-14T01:04:13;5.75;;;4.03;;
59442;SDS011;45247;47.466;19.004;2023-05-14T01:06:46;5.93;;;3.97;;
59442;SDS011;45247;47.466;19.004;2023-05-14T01:09:25;5.45;;;4.15;;
59442;SDS011;45247;47.466;19.004;2023-05-14T01:12:00;4.22;;;3.58;;
59442;SDS011;45247;47.466;19.004;2023-05-14T01:14:33;5.40;;;3.88;;
59442;SDS011;45247;47.466;19.004;2023-05-14T01:17:07;5.15;;;3.90;;
59442;SDS011;45247;47.466;19.004;2023-05-14T01:19:40;5.30;;;3.85;;
59442;SDS011;45247;47.466;19.004;2023-05-14T01:22:11;6.32;;;3.92;;
59442;SDS011;45247;47.466;19.004;2023-05-14T01:24:39;5.25;;;4.30;;
59442;SDS011;45247;47.466;19.004;2023-05-14T01:27:09;4.90;;;4.03;;
59442;SDS011;45247;47.466;19.004;2023-05-14T01:29:53;4.95;;;4.15;;
59442;SDS011;45247;47.466;19.004;2023-05-14T01:32:29;4.95;;;3.90;;
59442;SDS011;45247;47.466;19.004;2023-05-14T01:34:59;5.50;;;4.25;;
59442;SDS011;45247;47.466;19.004;2023-05-14T01:37:29;5.40;;;4.47;;
59442;SDS011;45247;47.466;19.004;2023-05-14T01:39:59;5.80;;;4.88;;
59442;SDS011;45247;47.466;19.004;2023-05-14T01:42:27;5.22;;;4.20;;
59442;SDS011;45247;47.466;19.004;2023-05-14T01:44:56;6.07;;;4.28;;
59442;SDS011;45247;47.466;19.004;2023-05-14T01:47:25;5.13;;;3.97;;
59442;SDS011;45247;47.466;19.004;2023-05-14T01:49:53;5.88;;;4.03;;
59442;SDS011;45247;47.466;19.004;2023-05-14T01:52:22;6.28;;;4.22;;
59442;SDS011;45247;47.466;19.004;2023-05-14T01:54:51;6.28;;;4.22;;
59442;SDS011;45247;47.466;19.004;2023-05-14T01:57:20;8.25;;;4.30;;
59442;SDS011;45247;47.466;19.004;2023-05-14T01:59:48;5.10;;;3.97;;
59442;SDS011;45247;47.466;19.004;2023-05-14T02:02:16;5.85;;;4.18;;
59442;SDS011;45247;47.466;19.004;2023-05-14T02:04:44;6.55;;;4.10;;
59442;SDS011;45247;47.466;19.004;2023-05-14T02:07:12;5.43;;;4.25;;
59442;SDS011;45247;47.466;19.004;2023-05-14T02:09:40;5.93;;;4.00;;
59442;SDS011;45247;47.466;19.004;2023-05-14T02:12:10;11.65;;;4.07;;
59442;SDS011;45247;47.466;19.004;2023-05-14T02:14:38;6.47;;;4.25;;
59442;SDS011;45247;47.466;19.004;2023-05-14T02:17:06;4.85;;;4.05;;
59442;SDS011;45247;47.466;19.004;2023-05-14T02:19:34;5.30;;;4.20;;
59442;SDS011;45247;47.466;19.004;2023-05-14T02:22:02;6.00;;;4.47;;
59442;SDS011;45247;47.466;19.004;2023-05-14T02:24:31;8.48;;;4.55;;
59442;SDS011;45247;47.466;19.004;2023-05-14T02:26:59;7.80;;;4.35;;
59442;SDS011;45247;47.466;19.004;2023-05-14T02:29:29;7.60;;;4.15;;
59442;SDS011;45247;47.466;19.004;2023-05-14T02:31:57;5.95;;;4.30;;
59442;SDS011;45247;47.466;19.004;2023-05-14T02:34:25;6.00;;;4.10;;
59442;SDS011;45247;47.466;19.004;2023-05-14T02:36:53;4.85;;;4.20;;
59442;SDS011;45247;47.466;19.004;2023-05-14T02:39:21;6.05;;;3.83;;
59442;SDS011;45247;47.466;19.004;2023-05-14T02:41:49;5.28;;;4.22;;
59442;SDS011;45247;47.466;19.004;2023-05-14T02:44:17;5.78;;;4.03;;
59442;SDS011;45247;47.466;19.004;2023-05-14T02:46:47;4.65;;;3.47;;
59442;SDS011;45247;47.466;19.004;2023-05-14T02:49:15;5.25;;;3.90;;
59442;SDS011;45247;47.466;19.004;2023-05-14T02:51:43;8.13;;;4.28;;
59442;SDS011;45247;47.466;19.004;2023-05-14T02:54:11;5.10;;;3.88;;
59442;SDS011;45247;47.466;19.004;2023-05-14T02:56:41;5.82;;;4.30;;
59442;SDS011;45247;47.466;19.004;2023-05-14T02:59:09;6.50;;;4.05;;
59442;SDS011;45247;47.466;19.004;2023-05-14T03:01:38;6.35;;;4.00;;
59442;SDS011;45247;47.466;19.004;2023-05-14T03:04:08;5.63;;;4.05;;
59442;SDS011;45247;47.466;19.004;2023-05-14T03:06:36;5.20;;;3.95;;
59442;SDS011;45247;47.466;19.004;2023-05-14T03:09:04;5.25;;;4.15;;
59442;SDS011;45247;47.466;19.004;2023-05-14T03:11:32;6.80;;;3.92;;
59442;SDS011;45247;47.466;19.004;2023-05-14T03:14:01;5.50;;;4.25;;
59442;SDS011;45247;47.466;19.004;2023-05-14T03:16:29;5.03;;;3.90;;
59442;SDS011;45247;47.466;19.004;2023-05-14T03:18:57;6.20;;;4.18;;
59442;SDS011;45247;47.466;19.004;2023-05-14T03:21:27;6.45;;;3.78;;
59442;SDS011;45247;47.466;19.004;2023-05-14T03:23:55;7.93;;;4.25;;
59442;SDS011;45247;47.466;19.004;2023-05-14T03:26:23;6.85;;;3.97;;
59442;SDS011;45247;47.466;19.004;2023-05-14T03:28:51;5.47;;;3.85;;
59442;SDS011;45247;47.466;19.004;2023-05-14T03:31:21;4.93;;;3.55;;
59442;SDS011;45247;47.466;19.004;2023-05-14T03:33:49;4.45;;;3.85;;
59442;SDS011;45247;47.466;19.004;2023-05-14T03:36:17;4.25;;;3.63;;
59442;SDS011;45247;47.466;19.004;2023-05-14T03:38:47;6.57;;;3.67;;
59442;SDS011;45247;47.466;19.004;2023-05-14T03:41:15;4.60;;;3.67;;
59442;SDS011;45247;47.466;19.004;2023-05-14T03:43:45;7.53;;;4.30;;
59442;SDS011;45247;47.466;19.004;2023-05-14T03:46:13;5.22;;;3.80;;
59442;SDS011;45247;47.466;19.004;2023-05-14T03:48:41;7.68;;;3.90;;
59442;SDS011;45247;47.466;19.004;2023-05-14T03:51:10;5.07;;;3.80;;
59442;SDS011;45247;47.466;19.004;2023-05-14T03:53:38;5.05;;;4.00;;
59442;SDS011;45247;47.466;19.004;2023-05-14T03:56:08;4.13;;;3.53;;
59442;SDS011;45247;47.466;19.004;2023-05-14T03:58:36;6.38;;;4.13;;
59442;SDS011;45247;47.466;19.004;2023-05-14T04:01:04;7.13;;;3.75;;
59442;SDS011;45247;47.466;19.004;2023-05-14T04:03:32;5.35;;;3.55;;
59442;SDS011;45247;47.466;19.004;2023-05-14T04:06:00;6.15;;;3.05;;
59442;SDS011;45247;47.466;19.004;2023-05-14T04:08:29;5.63;;;3.50;;
59442;SDS011;45247;47.466;19.004;2023-05-14T04:10:57;5.13;;;3.30;;
59442;SDS011;45247;47.466;19.004;2023-05-14T04:13:26;6.30;;;3.15;;
59442;SDS011;45247;47.466;19.004;2023-05-14T04:15:54;5.43;;;3.55;;
59442;SDS011;45247;47.466;19.004;2023-05-14T04:18:23;3.67;;;3.03;;
59442;SDS011;45247;47.466;19.004;2023-05-14T04:20:51;6.88;;;3.17;;
59442;SDS011;45247;47.466;19.004;2023-05-14T04:23:20;5.78;;;3.50;;
59442;SDS011;45247;47.466;19.004;2023-05-14T04:25:48;4.30;;;3.10;;
59442;SDS011;45247;47.466;19.004;2023-05-14T04:28:16;3.65;;;2.95;;
59442;SDS011;45247;47.466;19.004;2023-05-14T04:30:46;6.53;;;2.97;;
59442;SDS011;45247;47.466;19.004;2023-05-14T04:33:15;4.43;;;2.83;;
59442;SDS011;45247;47.466;19.004;2023-05-14T04:35:43;5.15;;;3.00;;
59442;SDS011;45247;47.466;19.004;2023-05-14T04:38:11;4.15;;;3.33;;
59442;SDS011;45247;47.466;19.004;2023-05-14T04:40:40;4.32;;;3.20;;
59442;SDS011;45247;47.466;19.004;2023-05-14T04:43:08;4.75;;;2.72;;
59442;SDS011;45247;47.466;19.004;2023-05-14T04:45:37;3.95;;;2.85;;
59442;SDS011;45247;47.466;19.004;2023-05-14T04:48:07;5.28;;;2.80;;
59442;SDS011;45247;47.466;19.004;2023-05-14T04:50:36;3.53;;;3.00;;
59442;SDS011;45247;47.466;19.004;2023-05-14T04:53:04;3.75;;;3.22;;
59442;SDS011;45247;47.466;19.004;2023-05-14T04:55:32;6.28;;;3.00;;
59442;SDS011;45247;47.466;19.004;2023-05-14T04:58:00;4.85;;;3.20;;
59442;SDS011;45247;47.466;19.004;2023-05-14T05:00:28;3.80;;;2.97;;
59442;SDS011;45247;47.466;19.004;2023-05-14T05:02:57;5.82;;;3.00;;
59442;SDS011;45247;47.466;19.004;2023-05-14T05:05:27;3.28;;;2.63;;
59442;SDS011;45247;47.466;19.004;2023-05-14T05:07:55;5.68;;;2.80;;
59442;SDS011;45247;47.466;19.004;2023-05-14T05:10:23;4.10;;;2.95;;
59442;SDS011;45247;47.466;19.004;2023-05-14T05:12:52;3.47;;;2.97;;
59442;SDS011;45247;47.466;19.004;2023-05-14T05:15:20;3.53;;;2.45;;
59442;SDS011;45247;47.466;19.004;2023-05-14T05:17:51;4.50;;;2.85;;
59442;SDS011;45247;47.466;19.004;2023-05-14T05:20:20;7.68;;;3.20;;
59442;SDS011;45247;47.466;19.004;2023-05-14T05:22:50;3.42;;;2.78;;
59442;SDS011;45247;47.466;19.004;2023-05-14T05:25:18;4.68;;;3.15;;
59442;SDS011;45247;47.466;19.004;2023-05-14T05:27:46;3.60;;;3.22;;
59442;SDS011;45247;47.466;19.004;2023-05-14T05:30:14;4.32;;;3.15;;
59442;SDS011;45247;47.466;19.004;2023-05-14T05:32:43;5.13;;;2.95;;
59442;SDS011;45247;47.466;19.004;2023-05-14T05:35:11;3.83;;;2.80;;
59442;SDS011;45247;47.466;19.004;2023-05-14T05:37:39;4.97;;;3.05;;
59442;SDS011;45247;47.466;19.004;2023-05-14T05:40:09;4.03;;;3.30;;
59442;SDS011;45247;47.466;19.004;2023-05-14T05:42:39;5.38;;;3.42;;
59442;SDS011;45247;47.466;19.004;2023-05-14T05:45:07;5.95;;;3.17;;
59442;SDS011;45247;47.466;19.004;2023-05-14T05:47:36;4.35;;;3.30;;
59442;SDS011;45247;47.466;19.004;2023-05-14T05:50:05;4.47;;;3.20;;
59442;SDS011;45247;47.466;19.004;2023-05-14T05:52:34;7.05;;;3.47;;
59442;SDS011;45247;47.466;19.004;2023-05-14T05:55:02;4.47;;;3.10;;
59442;SDS011;45247;47.466;19.004;2023-05-14T05:57:32;7.07;;;3.47;;
59442;SDS011;45247;47.466;19.004;2023-05-14T06:00:00;4.57;;;2.88;;
59442;SDS011;45247;47.466;19.004;2023-05-14T06:02:38;4.40;;;2.97;;
59442;SDS011;45247;47.466;19.004;2023-05-14T06:05:07;4.90;;;3.13;;
59442;SDS011;45247;47.466;19.004;2023-05-14T06:07:36;4.25;;;3.33;;
59442;SDS011;45247;47.466;19.004;2023-05-14T06:10:04;6.97;;;3.58;;
59442;SDS011;45247;47.466;19.004;2023-05-14T06:12:35;4.28;;;3.20;;
59442;SDS011;45247;47.466;19.004;2023-05-14T06:15:03;4.13;;;3.33;;
59442;SDS011;45247;47.466;19.004;2023-05-14T06:17:32;4.70;;;3.28;;
59442;SDS011;45247;47.466;19.004;2023-05-14T06:20:03;5.78;;;3.47;;
59442;SDS011;45247;47.466;19.004;2023-05-14T06:22:33;7.00;;;3.22;;
59442;SDS011;45247;47.466;19.004;2023-05-14T06:25:01;4.93;;;3.25;;
59442;SDS011;45247;47.466;19.004;2023-05-14T06:27:29;4.20;;;3.33;;
59442;SDS011;45247;47.466;19.004;2023-05-14T06:29:59;4.60;;;3.25;;
59442;SDS011;45247;47.466;19.004;2023-05-14T06:32:27;4.78;;;3.58;;
59442;SDS011;45247;47.466;19.004;2023-05-14T06:34:55;4.28;;;3.40;;
59442;SDS011;45247;47.466;19.004;2023-05-14T06:37:23;3.97;;;3.10;;
59442;SDS011;45247;47.466;19.004;2023-05-14T06:39:51;6.43;;;3.88;;
59442;SDS011;45247;47.466;19.004;2023-05-14T06:42:23;4.35;;;3.35;;
59442;SDS011;45247;47.466;19.004;2023-05-14T06:44:51;6.88;;;3.97;;
59442;SDS011;45247;47.466;19.004;2023-05-14T06:47:21;4.55;;;3.58;;
59442;SDS011;45247;47.466;19.004;2023-05-14T06:49:49;5.85;;;3.72;;
59442;SDS011;45247;47.466;19.004;2023-05-14T06:52:17;5.20;;;3.47;;
59442;SDS011;45247;47.466;19.004;2023-05-14T06:54:45;4.32;;;3.35;;
59442;SDS011;45247;47.466;19.004;2023-05-14T06:57:13;6.05;;;4.32;;
59442;SDS011;45247;47.466;19.004;2023-05-14T06:59:41;4.82;;;4.10;;
59442;SDS011;45247;47.466;19.004;2023-05-14T07:02:10;5.60;;;4.40;;
59442;SDS011;45247;47.466;19.004;2023-05-14T07:04:40;7.88;;;3.60;;
59442;SDS011;45247;47.466;19.004;2023-05-14T07:07:08;5.60;;;4.05;;
59442;SDS011;45247;47.466;19.004;2023-05-14T07:09:40;4.50;;;3.45;;
59442;SDS011;45247;47.466;19.004;2023-05-14T07:12:09;5.07;;;3.70;;
59442;SDS011;45247;47.466;19.004;2023-05-14T07:14:37;5.68;;;3.50;;
59442;SDS011;45247;47.466;19.004;2023-05-14T07:17:05;5.88;;;3.78;;
59442;SDS011;45247;47.466;19.004;2023-05-14T07:19:33;6.32;;;3.83;;
59442;SDS011;45247;47.466;19.004;2023-05-14T07:22:03;5.20;;;3.67;;
59442;SDS011;45247;47.466;19.004;2023-05-14T07:24:31;6.28;;;3.53;;
59442;SDS011;45247;47.466;19.004;2023-05-14T07:27:01;4.70;;;3.53;;
59442;SDS011;45247;47.466;19.004;2023-05-14T07:29:30;5.15;;;3.50;;
59442;SDS011;45247;47.466;19.004;2023-05-14T07:32:00;7.25;;;3.70;;
59442;SDS011;45247;47.466;19.004;2023-05-14T07:34:28;5.97;;;3.72;;
59442;SDS011;45247;47.466;19.004;2023-05-14T07:36:56;5.05;;;3.22;;
59442;SDS011;45247;47.466;19.004;2023-05-14T07:39:26;7.40;;;3.60;;
59442;SDS011;45247;47.466;19.004;2023-05-14T07:41:54;4.40;;;3.45;;
59442;SDS011;45247;47.466;19.004;2023-05-14T07:44:22;5.78;;;3.45;;
59442;SDS011;45247;47.466;19.004;2023-05-14T07:46:50;4.43;;;3.45;;
59442;SDS011;45247;47.466;19.004;2023-05-14T07:49:18;6.28;;;3.35;;
59442;SDS011;45247;47.466;19.004;2023-05-14T07:51:46;6.05;;;3.85;;
59442;SDS011;45247;47.466;19.004;2023-05-14T07:54:15;4.57;;;3.25;;
59442;SDS011;45247;47.466;19.004;2023-05-14T07:56:44;6.47;;;3.53;;
59442;SDS011;45247;47.466;19.004;2023-05-14T07:59:12;6.70;;;3.60;;
59442;SDS011;45247;47.466;19.004;2023-05-14T08:01:41;4.55;;;3.38;;
59442;SDS011;45247;47.466;19.004;2023-05-14T08:04:09;7.07;;;4.20;;
59442;SDS011;45247;47.466;19.004;2023-05-14T08:06:38;7.93;;;3.60;;
59442;SDS011;45247;47.466;19.004;2023-05-14T08:09:06;5.20;;;3.42;;
59442;SDS011;45247;47.466;19.004;2023-05-14T08:11:35;4.50;;;3.35;;
59442;SDS011;45247;47.466;19.004;2023-05-14T08:14:04;4.63;;;3.47;;
59442;SDS011;45247;47.466;19.004;2023-05-14T08:16:32;6.07;;;3.75;;
59442;SDS011;45247;47.466;19.004;2023-05-14T08:19:01;5.85;;;3.67;;
59442;SDS011;45247;47.466;19.004;2023-05-14T08:21:29;6.38;;;3.88;;
59442;SDS011;45247;47.466;19.004;2023-05-14T08:23:59;6.82;;;3.70;;
59442;SDS011;45247;47.466;19.004;2023-05-14T08:26:27;5.57;;;3.47;;
59442;SDS011;45247;47.466;19.004;2023-05-14T08:28:55;4.88;;;3.60;;
59442;SDS011;45247;47.466;19.004;2023-05-14T08:31:24;6.80;;;3.53;;
59442;SDS011;45247;47.466;19.004;2023-05-14T08:33:52;5.18;;;3.65;;
59442;SDS011;45247;47.466;19.004;2023-05-14T08:36:21;6.72;;;3.75;;
59442;SDS011;45247;47.466;19.004;2023-05-14T08:38:49;6.47;;;4.10;;
59442;SDS011;45247;47.466;19.004;2023-05-14T08:41:17;4.75;;;3.40;;
59442;SDS011;45247;47.466;19.004;2023-05-14T08:43:49;5.88;;;3.75;;
59442;SDS011;45247;47.466;19.004;2023-05-14T08:46:29;4.78;;;3.50;;
59442;SDS011;45247;47.466;19.004;2023-05-14T08:48:59;5.25;;;3.80;;
59442;SDS011;45247;47.466;19.004;2023-05-14T08:51:37;4.85;;;3.53;;
59442;SDS011;45247;47.466;19.004;2023-05-14T08:54:06;5.28;;;3.58;;
59442;SDS011;45247;47.466;19.004;2023-05-14T08:56:34;6.30;;;3.72;;
59442;SDS011;45247;47.466;19.004;2023-05-14T08:59:05;5.47;;;3.53;;
59442;SDS011;45247;47.466;19.004;2023-05-14T09:01:35;10.35;;;4.10;;
59442;SDS011;45247;47.466;19.004;2023-05-14T09:04:05;3.90;;;3.50;;
59442;SDS011;45247;47.466;19.004;2023-05-14T09:06:34;6.18;;;3.78;;
59442;SDS011;45247;47.466;19.004;2023-05-14T09:09:03;4.10;;;3.58;;
59442;SDS011;45247;47.466;19.004;2023-05-14T09:11:32;4.60;;;3.92;;
59442;SDS011;45247;47.466;19.004;2023-05-14T09:14:00;7.32;;;4.25;;
59442;SDS011;45247;47.466;19.004;2023-05-14T09:16:29;7.40;;;4.20;;
59442;SDS011;45247;47.466;19.004;2023-05-14T09:18:59;6.38;;;4.28;;
59442;SDS011;45247;47.466;19.004;2023-05-14T09:21:28;6.03;;;4.10;;
59442;SDS011;45247;47.466;19.004;2023-05-14T09:23:59;6.03;;;4.10;;
59442;SDS011;45247;47.466;19.004;2023-05-14T09:26:27;6.80;;;3.78;;
59442;SDS011;45247;47.466;19.004;2023-05-14T09:28:59;5.15;;;4.00;;
59442;SDS011;45247;47.466;19.004;2023-05-14T09:31:29;7.13;;;3.95;;
59442;SDS011;45247;47.466;19.004;2023-05-14T09:34:00;9.18;;;4.35;;
59442;SDS011;45247;47.466;19.004;2023-05-14T09:36:28;6.85;;;4.78;;
59442;SDS011;45247;47.466;19.004;2023-05-14T09:38:57;6.00;;;4.20;;
59442;SDS011;45247;47.466;19.004;2023-05-14T09:41:25;5.40;;;4.13;;
59442;SDS011;45247;47.466;19.004;2023-05-14T09:43:53;6.45;;;4.15;;
59442;SDS011;45247;47.466;19.004;2023-05-14T09:46:22;6.60;;;4.30;;
59442;SDS011;45247;47.466;19.004;2023-05-14T09:48:55;5.15;;;4.32;;
59442;SDS011;45247;47.466;19.004;2023-05-14T09:51:25;5.20;;;3.97;;
59442;SDS011;45247;47.466;19.004;2023-05-14T09:53:56;5.18;;;4.20;;
59442;SDS011;45247;47.466;19.004;2023-05-14T09:56:25;6.95;;;4.50;;
59442;SDS011;45247;47.466;19.004;2023-05-14T09:58:53;6.88;;;4.43;;
59442;SDS011;45247;47.466;19.004;2023-05-14T10:01:21;5.80;;;4.10;;
59442;SDS011;45247;47.466;19.004;2023-05-14T10:03:51;8.00;;;4.53;;
59442;SDS011;45247;47.466;19.004;2023-05-14T10:06:21;4.97;;;4.35;;
59442;SDS011;45247;47.466;19.004;2023-05-14T10:08:54;7.30;;;4.07;;
59442;SDS011;45247;47.466;19.004;2023-05-14T10:11:24;5.00;;;4.50;;
59442;SDS011;45247;47.466;19.004;2023-05-14T10:13:56;6.90;;;4.38;;
59442;SDS011;45247;47.466;19.004;2023-05-14T10:16:30;6.28;;;4.68;;
59442;SDS011;45247;47.466;19.004;2023-05-14T10:19:03;4.60;;;3.90;;
59442;SDS011;45247;47.466;19.004;2023-05-14T10:21:34;8.30;;;4.35;;
59442;SDS011;45247;47.466;19.004;2023-05-14T10:24:06;5.68;;;4.22;;
59442;SDS011;45247;47.466;19.004;2023-05-14T10:26:37;5.18;;;4.45;;
59442;SDS011;45247;47.466;19.004;2023-05-14T10:29:08;7.70;;;5.25;;
59442;SDS011;45247;47.466;19.004;2023-05-14T10:31:45;7.55;;;5.28;;
59442;SDS011;45247;47.466;19.004;2023-05-14T10:37:04;4.85;;;4.35;;
59442;SDS011;45247;47.466;19.004;2023-05-14T10:39:43;6.85;;;4.78;;
59442;SDS011;45247;47.466;19.004;2023-05-14T10:42:12;6.60;;;4.47;;
59442;SDS011;45247;47.466;19.004;2023-05-14T10:44:47;8.77;;;4.50;;
59442;SDS011;45247;47.466;19.004;2023-05-14T10:47:18;8.85;;;4.40;;
59442;SDS011;45247;47.466;19.004;2023-05-14T10:49:47;6.80;;;5.20;;
59442;SDS011;45247;47.466;19.004;2023-05-14T10:52:16;7.15;;;5.07;;
59442;SDS011;45247;47.466;19.004;2023-05-14T10:54:50;5.85;;;5.13;;
59442;SDS011;45247;47.466;19.004;2023-05-14T10:57:21;5.68;;;4.18;;
59442;SDS011;45247;47.466;19.004;2023-05-14T10:59:50;7.53;;;4.90;;
59442;SDS011;45247;47.466;19.004;2023-05-14T11:02:21;5.63;;;3.92;;
59442;SDS011;45247;47.466;19.004;2023-05-14T11:04:51;6.63;;;4.45;;
59442;SDS011;45247;47.466;19.004;2023-05-14T11:07:26;6.68;;;4.20;;
59442;SDS011;45247;47.466;19.004;2023-05-14T11:09:58;5.38;;;4.35;;
59442;SDS011;45247;47.466;19.004;2023-05-14T11:12:28;4.53;;;3.72;;
59442;SDS011;45247;47.466;19.004;2023-05-14T11:14:57;6.65;;;4.60;;
59442;SDS011;45247;47.466;19.004;2023-05-14T11:17:27;5.78;;;4.75;;
59442;SDS011;45247;47.466;19.004;2023-05-14T11:19:58;5.07;;;4.13;;
59442;SDS011;45247;47.466;19.004;2023-05-14T11:22:26;5.75;;;4.13;;
59442;SDS011;45247;47.466;19.004;2023-05-14T11:24:54;8.63;;;4.60;;
59442;SDS011;45247;47.466;19.004;2023-05-14T11:27:24;5.95;;;4.53;;
59442;SDS011;45247;47.466;19.004;2023-05-14T11:29:52;5.63;;;4.32;;
59442;SDS011;45247;47.466;19.004;2023-05-14T11:32:21;7.28;;;5.07;;
59442;SDS011;45247;47.466;19.004;2023-05-14T11:34:49;9.38;;;4.70;;
59442;SDS011;45247;47.466;19.004;2023-05-14T11:37:18;6.05;;;5.20;;
59442;SDS011;45247;47.466;19.004;2023-05-14T11:39:47;6.75;;;5.20;;
59442;SDS011;45247;47.466;19.004;2023-05-14T11:42:16;6.80;;;5.40;;
59442;SDS011;45247;47.466;19.004;2023-05-14T11:44:47;6.85;;;5.18;;
59442;SDS011;45247;47.466;19.004;2023-05-14T11:47:18;9.40;;;5.85;;
59442;SDS011;45247;47.466;19.004;2023-05-14T11:49:47;8.43;;;5.50;;
59442;SDS011;45247;47.466;19.004;2023-05-14T11:52:16;7.13;;;5.53;;
59442;SDS011;45247;47.466;19.004;2023-05-14T11:54:47;8.75;;;5.55;;
59442;SDS011;45247;47.466;19.004;2023-05-14T11:57:17;6.65;;;5.25;;
59442;SDS011;45247;47.466;19.004;2023-05-14T11:59:48;6.72;;;5.30;;
59442;SDS011;45247;47.466;19.004;2023-05-14T12:02:23;7.93;;;5.38;;
59442;SDS011;45247;47.466;19.004;2023-05-14T12:04:54;7.53;;;5.10;;
59442;SDS011;45247;47.466;19.004;2023-05-14T12:07:22;6.57;;;4.60;;
59442;SDS011;45247;47.466;19.004;2023-05-14T12:09:55;7.15;;;4.88;;
59442;SDS011;45247;47.466;19.004;2023-05-14T12:12:32;6.15;;;4.50;;
59442;SDS011;45247;47.466;19.004;2023-05-14T12:15:09;7.20;;;4.70;;
59442;SDS011;45247;47.466;19.004;2023-05-14T12:17:38;8.50;;;5.18;;
59442;SDS011;45247;47.466;19.004;2023-05-14T12:20:07;8.23;;;5.07;;
59442;SDS011;45247;47.466;19.004;2023-05-14T12:22:37;7.38;;;4.95;;
59442;SDS011;45247;47.466;19.004;2023-05-14T12:25:09;6.70;;;4.40;;
59442;SDS011;45247;47.466;19.004;2023-05-14T12:27:39;6.10;;;5.00;;
59442;SDS011;45247;47.466;19.004;2023-05-14T12:30:12;8.02;;;4.82;;
59442;SDS011;45247;47.466;19.004;2023-05-14T12:32:43;5.95;;;4.68;;
59442;SDS011;45247;47.466;19.004;2023-05-14T12:35:12;6.40;;;4.57;;
59442;SDS011;45247;47.466;19.004;2023-05-14T12:37:40;7.30;;;4.75;;
59442;SDS011;45247;47.466;19.004;2023-05-14T12:40:11;6.90;;;5.03;;
59442;SDS011;45247;47.466;19.004;2023-05-14T12:42:42;8.05;;;4.78;;
59442;SDS011;45247;47.466;19.004;2023-05-14T12:45:12;5.63;;;4.70;;
59442;SDS011;45247;47.466;19.004;2023-05-14T12:47:40;12.10;;;5.15;;
59442;SDS011;45247;47.466;19.004;2023-05-14T12:50:08;7.20;;;5.18;;
59442;SDS011;45247;47.466;19.004;2023-05-14T12:52:37;8.48;;;5.38;;
59442;SDS011;45247;47.466;19.004;2023-05-14T12:55:05;5.75;;;4.80;;
59442;SDS011;45247;47.466;19.004;2023-05-14T12:57:35;6.80;;;5.50;;
59442;SDS011;45247;47.466;19.004;2023-05-14T13:00:05;8.75;;;6.22;;
59442;SDS011;45247;47.466;19.004;2023-05-14T13:02:40;7.15;;;5.70;;
59442;SDS011;45247;47.466;19.004;2023-05-14T13:05:09;9.18;;;5.60;;
59442;SDS011;45247;47.466;19.004;2023-05-14T13:07:38;7.22;;;5.80;;
59442;SDS011;45247;47.466;19.004;2023-05-14T13:10:07;9.93;;;6.15;;
59442;SDS011;45247;47.466;19.004;2023-05-14T13:12:35;6.97;;;6.28;;
59442;SDS011;45247;47.466;19.004;2023-05-14T13:15:04;7.57;;;6.20;;
59442;SDS011;45247;47.466;19.004;2023-05-14T13:17:33;9.43;;;6.05;;
59442;SDS011;45247;47.466;19.004;2023-05-14T13:20:04;10.23;;;6.65;;
59442;SDS011;45247;47.466;19.004;2023-05-14T13:22:33;9.15;;;6.50;;
59442;SDS011;45247;47.466;19.004;2023-05-14T13:25:01;7.70;;;6.18;;
59442;SDS011;45247;47.466;19.004;2023-05-14T13:27:30;9.38;;;6.43;;
59442;SDS011;45247;47.466;19.004;2023-05-14T13:29:59;8.75;;;6.72;;
59442;SDS011;45247;47.466;19.004;2023-05-14T13:32:27;9.82;;;6.88;;
59442;SDS011;45247;47.466;19.004;2023-05-14T13:34:55;10.43;;;7.10;;
59442;SDS011;45247;47.466;19.004;2023-05-14T13:37:24;7.78;;;6.78;;
59442;SDS011;45247;47.466;19.004;2023-05-14T13:39:52;8.30;;;7.03;;
59442;SDS011;45247;47.466;19.004;2023-05-14T13:42:21;8.90;;;6.65;;
59442;SDS011;45247;47.466;19.004;2023-05-14T13:44:49;8.65;;;6.38;;
59442;SDS011;45247;47.466;19.004;2023-05-14T13:47:17;8.05;;;6.50;;
59442;SDS011;45247;47.466;19.004;2023-05-14T13:49:45;7.35;;;6.53;;
59442;SDS011;45247;47.466;19.004;2023-05-14T13:52:14;8.07;;;6.50;;
59442;SDS011;45247;47.466;19.004;2023-05-14T13:54:43;7.55;;;6.50;;
59442;SDS011;45247;47.466;19.004;2023-05-14T13:57:11;8.85;;;6.93;;
59442;SDS011;45247;47.466;19.004;2023-05-14T13:59:40;9.93;;;7.45;;
59442;SDS011;45247;47.466;19.004;2023-05-14T14:02:08;9.00;;;6.65;;
59442;SDS011;45247;47.466;19.004;2023-05-14T14:04:36;8.77;;;7.03;;
59442;SDS011;45247;47.466;19.004;2023-05-14T14:07:04;9.23;;;6.88;;
59442;SDS011;45247;47.466;19.004;2023-05-14T14:09:33;8.98;;;7.15;;
59442;SDS011;45247;47.466;19.004;2023-05-14T14:12:04;7.80;;;6.88;;
59442;SDS011;45247;47.466;19.004;2023-05-14T14:14:32;9.88;;;7.40;;
59442;SDS011;45247;47.466;19.004;2023-05-14T14:17:00;9.35;;;7.05;;
59442;SDS011;45247;47.466;19.004;2023-05-14T14:19:29;9.10;;;7.03;;
59442;SDS011;45247;47.466;19.004;2023-05-14T14:21:57;9.23;;;7.53;;
59442;SDS011;45247;47.466;19.004;2023-05-14T14:24:25;9.10;;;7.22;;
59442;SDS011;45247;47.466;19.004;2023-05-14T14:26:53;10.35;;;7.65;;
59442;SDS011;45247;47.466;19.004;2023-05-14T14:29:23;8.52;;;7.53;;
59442;SDS011;45247;47.466;19.004;2023-05-14T14:31:51;9.40;;;7.63;;
59442;SDS011;45247;47.466;19.004;2023-05-14T14:34:19;9.25;;;7.90;;
59442;SDS011;45247;47.466;19.004;2023-05-14T14:36:47;10.48;;;7.78;;
59442;SDS011;45247;47.466;19.004;2023-05-14T14:39:15;8.68;;;7.05;;
59442;SDS011;45247;47.466;19.004;2023-05-14T14:41:43;9.93;;;7.18;;
59442;SDS011;45247;47.466;19.004;2023-05-14T14:44:13;8.02;;;6.60;;
59442;SDS011;45247;47.466;19.004;2023-05-14T14:46:42;8.88;;;6.28;;
59442;SDS011;45247;47.466;19.004;2023-05-14T14:49:10;8.85;;;6.10;;